createdAt,value
2019-02-21T00:01:23.111Z,39.10
2019-02-21T00:04:18.988Z,37.80
2019-02-21T00:07:14.194Z,40.20
2019-02-21T00:10:09.456Z,42.40
2019-02-21T00:13:04.612Z,44.60
2019-02-21T00:16:00.222Z,42.90
2019-02-21T00:18:55.450Z,42.13
2019-02-21T00:21:50.697Z,43.38
2019-02-21T00:24:46.232Z,45.33
2019-02-21T00:27:41.947Z,45.85
2019-02-21T00:30:37.140Z,44.67
2019-02-21T00:33:32.245Z,44.08
2019-02-21T00:36:29.101Z,42.15
2019-02-21T00:39:24.252Z,41.20
2019-02-21T00:42:19.826Z,40.43
2019-02-21T00:45:17.018Z,41.20
2019-02-21T00:48:12.262Z,39.40
2019-02-21T00:51:07.629Z,40.52
2019-02-21T00:54:02.509Z,39.75
2019-02-21T00:56:57.998Z,41.53
2019-02-21T00:59:54.517Z,48.17
2019-02-21T01:02:49.566Z,50.55
2019-02-21T01:05:45.348Z,55.10
2019-02-21T01:08:40.228Z,80.65
2019-02-21T01:11:36.010Z,71.82
2019-02-21T01:14:31.114Z,73.57
2019-02-21T01:17:26.258Z,71.87
2019-02-21T01:20:21.626Z,76.55
2019-02-21T01:23:16.841Z,75.55
2019-02-21T01:26:11.995Z,80.55
2019-02-21T01:29:07.127Z,75.40
2019-02-21T01:32:02.043Z,79.07
2019-02-21T01:34:57.850Z,76.60
2019-02-21T01:37:52.907Z,82.33
2019-02-21T01:40:48.254Z,80.35
2019-02-21T01:43:43.539Z,81.25
2019-02-21T01:46:38.514Z,77.60
2019-02-21T01:49:33.710Z,75.65
2019-02-21T01:52:28.778Z,80.32
2019-02-21T01:55:23.882Z,74.05
2019-02-21T01:58:18.803Z,71.85
2019-02-21T02:01:15.147Z,69.17
2019-02-21T02:04:11.940Z,69.70
2019-02-21T02:07:07.111Z,71.85
2019-02-21T02:10:02.070Z,66.25
2019-02-21T02:12:57.109Z,61.60
2019-02-21T02:15:52.434Z,62.00
2019-02-21T02:18:48.006Z,60.12
2019-02-21T02:21:44.927Z,58.75
2019-02-21T02:24:40.253Z,60.50
2019-02-21T02:27:35.491Z,57.95
2019-02-21T02:30:32.426Z,57.10
2019-02-21T02:33:27.731Z,59.25
2019-02-21T02:36:23.505Z,59.83
2019-02-21T02:39:18.371Z,58.55
2019-02-21T02:42:13.515Z,57.27
2019-02-21T02:45:08.802Z,57.48
2019-02-21T02:48:04.233Z,55.75
2019-02-21T02:50:59.327Z,57.55
2019-02-21T02:53:54.390Z,58.80
2019-02-21T02:56:49.736Z,58.33
2019-02-21T02:59:45.970Z,60.23
2019-02-21T03:02:40.855Z,58.60
2019-02-21T03:05:37.250Z,60.05
2019-02-21T03:08:34.440Z,56.92
2019-02-21T03:11:29.947Z,56.13
2019-02-21T03:14:25.177Z,55.55
2019-02-21T03:17:20.065Z,56.20
2019-02-21T03:20:16.680Z,56.08
2019-02-21T03:23:11.984Z,54.88
2019-02-21T03:26:07.098Z,56.63
2019-02-21T03:29:02.467Z,54.25
2019-02-21T03:32:01.306Z,54.10
2019-02-21T03:34:58.496Z,57.33
2019-02-21T03:37:54.449Z,55.95
2019-02-21T03:40:50.075Z,50.40
2019-02-21T03:43:45.211Z,51.98
2019-02-21T03:46:42.807Z,51.15
2019-02-21T03:49:37.953Z,49.23
2019-02-21T03:52:33.733Z,49.53
2019-02-21T03:55:30.254Z,48.00
2019-02-21T03:58:26.183Z,46.73
2019-02-21T04:01:21.212Z,49.05
2019-02-21T04:04:16.311Z,48.65
2019-02-21T04:07:11.694Z,47.53
2019-02-21T04:10:07.103Z,45.80
2019-02-21T04:13:05.395Z,45.92
2019-02-21T04:16:00.856Z,52.53
2019-02-21T04:18:56.405Z,55.43
2019-02-21T04:21:51.538Z,46.77
2019-02-21T04:24:47.246Z,45.28
2019-02-21T04:27:49.586Z,51.18
2019-02-21T04:30:45.698Z,46.33
2019-02-21T04:33:41.743Z,45.35
2019-02-21T04:36:37.573Z,44.93
2019-02-21T04:39:40.231Z,45.48
2019-02-21T04:42:39.885Z,47.95
2019-02-21T04:45:39.732Z,45.33
2019-02-21T04:48:35.675Z,46.95
2019-02-21T04:51:31.737Z,46.70
2019-02-21T04:54:26.458Z,49.83
2019-02-21T04:57:21.324Z,46.58
2019-02-21T05:00:18.357Z,40.98
2019-02-21T05:03:15.055Z,36.85
2019-02-21T05:06:10.746Z,33.55
2019-02-21T05:09:07.668Z,36.10
2019-02-21T05:12:06.969Z,33.80
2019-02-21T05:15:04.286Z,37.05
2019-02-21T05:17:59.599Z,33.60
2019-02-21T05:21:27.767Z,32.40
2019-02-21T05:24:34.237Z,35.55
2019-02-21T05:27:45.505Z,38.73
2019-02-21T05:31:39.639Z,40.78
2019-02-21T05:34:54.753Z,39.98
2019-02-21T05:37:57.616Z,38.65
2019-02-21T05:41:17.724Z,31.90
2019-02-21T05:44:29.138Z,29.80
2019-02-21T05:47:46.573Z,33.18
2019-02-21T05:50:47.923Z,32.83
2019-02-21T05:54:17.038Z,33.50
2019-02-21T05:57:39.432Z,29.82
2019-02-21T06:01:11.374Z,27.22
2019-02-21T06:04:23.648Z,29.95
2019-02-21T06:07:42.677Z,32.20
2019-02-21T06:11:17.994Z,39.48
2019-02-21T06:14:40.756Z,31.37
2019-02-21T06:19:07.513Z,31.00
2019-02-21T06:22:31.319Z,28.52
2019-02-21T06:26:06.387Z,30.43
2019-02-21T06:29:27.836Z,28.27
2019-02-21T06:32:24.254Z,27.98
2019-02-21T06:35:24.234Z,28.47
2019-02-21T06:38:23.579Z,24.98
2019-02-21T06:41:24.398Z,26.75
2019-02-21T06:44:23.764Z,28.35
2019-02-21T06:47:24.612Z,26.02
2019-02-21T06:50:27.041Z,26.50
2019-02-21T06:53:26.118Z,25.90
2019-02-21T06:56:22.976Z,23.62
2019-02-21T06:59:20.401Z,25.45
2019-02-21T07:02:20.241Z,25.17
2019-02-21T07:05:22.154Z,25.25
2019-02-21T07:08:19.914Z,24.15
2019-02-21T07:11:16.097Z,24.10
2019-02-21T07:14:12.634Z,22.70
2019-02-21T07:17:09.656Z,23.18
2019-02-21T07:20:08.240Z,22.98
2019-02-21T07:23:07.684Z,22.90
2019-02-21T07:26:07.321Z,22.73
2019-02-21T07:29:07.168Z,22.37
2019-02-21T07:32:04.076Z,21.95
2019-02-21T07:35:16.220Z,25.62
2019-02-21T07:38:11.925Z,20.20
2019-02-21T07:41:08.274Z,21.23
2019-02-21T07:44:12.053Z,20.20
2019-02-21T07:47:04.754Z,21.87
2019-02-21T07:50:15.910Z,23.30
2019-02-21T07:53:16.436Z,22.22
2019-02-21T07:56:12.911Z,21.62
2019-02-21T07:59:11.926Z,22.27
2019-02-21T08:02:05.706Z,20.92
2019-02-21T08:05:02.470Z,21.30
2019-02-21T08:07:58.354Z,22.55
2019-02-21T08:11:11.974Z,21.45
2019-02-21T08:14:26.539Z,23.22
2019-02-21T08:17:17.662Z,21.80
2019-02-21T08:20:15.499Z,20.35
2019-02-21T08:23:19.015Z,23.22
2019-02-21T08:26:46.620Z,22.42
2019-02-21T08:29:52.213Z,23.27
2019-02-21T08:33:20.640Z,22.98
2019-02-21T08:36:18.859Z,23.95
2019-02-21T08:39:14.859Z,28.45
2019-02-21T08:42:12.668Z,24.30
2019-02-21T08:45:11.556Z,26.33
2019-02-21T08:48:08.934Z,26.50
2019-02-21T08:51:11.881Z,25.77
2019-02-21T08:54:17.601Z,26.55
2019-02-21T08:57:13.775Z,24.98
2019-02-21T09:00:10.982Z,26.48
2019-02-21T09:03:23.454Z,26.62
2019-02-21T09:06:20.321Z,26.80
2019-02-21T09:09:15.789Z,26.33
2019-02-21T09:12:11.414Z,27.25
2019-02-21T09:15:06.988Z,27.37
2019-02-21T09:18:16.107Z,26.15
2019-02-21T09:21:41.241Z,27.30
2019-02-21T09:24:47.698Z,26.62
2019-02-21T09:27:59.747Z,28.83
2019-02-21T09:30:56.594Z,27.02
2019-02-21T09:33:54.087Z,26.95
2019-02-21T09:36:51.549Z,28.07
2019-02-21T09:39:51.054Z,26.27
2019-02-21T09:42:49.630Z,25.30
2019-02-21T09:45:46.408Z,28.83
2019-02-21T09:49:03.084Z,29.12
2019-02-21T09:51:59.287Z,32.93
2019-02-21T09:54:57.360Z,33.30
2019-02-21T09:57:53.994Z,34.05
2019-02-21T10:01:07.797Z,33.48
2019-02-21T10:05:04.176Z,34.38
2019-02-21T10:13:38.219Z,30.68
2019-02-21T10:17:05.511Z,35.58
2019-02-21T10:24:50.867Z,39.65
2019-02-21T10:27:47.474Z,37.65
2019-02-21T10:30:45.848Z,35.83
2019-02-21T10:33:47.118Z,36.30
2019-02-21T10:36:37.923Z,35.95
2019-02-21T10:39:33.817Z,33.65
2019-02-21T10:42:32.472Z,35.70
2019-02-21T10:45:28.689Z,32.53
2019-02-21T10:48:25.060Z,30.90
2019-02-21T10:51:23.050Z,30.27
2019-02-21T10:54:20.589Z,27.90
2019-02-21T10:57:17.081Z,29.50
2019-02-21T11:00:18.095Z,28.38
2019-02-21T11:03:14.129Z,30.40
2019-02-21T11:06:15.949Z,32.40
2019-02-21T11:09:16.653Z,31.23
2019-02-21T11:12:14.677Z,31.97
2019-02-21T11:15:12.601Z,32.78
2019-02-21T11:18:08.458Z,33.18
2019-02-21T11:21:06.783Z,29.92
2019-02-21T11:24:03.724Z,29.80
2019-02-21T11:27:00.011Z,30.43
2019-02-21T11:29:59.051Z,32.80
2019-02-21T11:32:54.626Z,30.00
2019-02-21T11:35:51.568Z,28.65
2019-02-21T11:38:48.982Z,28.17
2019-02-21T11:41:44.681Z,29.55
2019-02-21T11:44:40.902Z,29.35
2019-02-21T11:47:36.362Z,28.85
2019-02-21T11:50:35.013Z,33.10
2019-02-21T11:53:30.706Z,38.45
2019-02-21T11:56:28.509Z,33.98
2019-02-21T11:59:29.169Z,40.38
2019-02-21T12:02:38.836Z,40.75
2019-02-21T12:05:31.302Z,33.15
2019-02-21T12:08:24.489Z,28.98
2019-02-21T12:11:20.857Z,32.15
2019-02-21T12:14:17.505Z,29.65
2019-02-21T12:17:42.549Z,29.87
2019-02-21T12:20:41.246Z,30.88
2019-02-21T12:33:59.568Z,29.25
2019-02-21T12:37:13.488Z,35.73
2019-02-21T12:41:11.630Z,35.30
2019-02-21T12:44:33.934Z,42.75
2019-02-21T12:47:49.721Z,40.92
2019-02-21T12:50:43.978Z,38.98
2019-02-21T12:53:32.279Z,38.85
2019-02-21T12:56:28.227Z,41.37
2019-02-21T12:59:23.972Z,39.73
2019-02-21T13:02:19.743Z,42.90
2019-02-21T13:05:15.216Z,44.27
2019-02-21T13:08:13.165Z,47.98
2019-02-21T13:11:08.681Z,46.35
2019-02-21T13:14:04.082Z,50.20
2019-02-21T13:16:59.341Z,46.08
2019-02-21T13:19:54.487Z,44.10
2019-02-21T13:22:51.042Z,46.08
2019-02-21T13:25:46.549Z,44.58
2019-02-21T13:28:41.980Z,50.88
2019-02-21T13:31:37.190Z,46.00
2019-02-21T13:34:33.085Z,42.88
2019-02-21T13:37:29.192Z,47.95
2019-02-21T13:40:24.485Z,54.40
2019-02-21T13:43:20.304Z,53.78
2019-02-21T13:46:16.705Z,59.23
2019-02-21T13:49:12.028Z,59.42
2019-02-21T13:52:08.273Z,58.08
2019-02-21T13:55:04.116Z,60.15
2019-02-21T13:57:59.863Z,57.95
2019-02-21T14:00:56.609Z,59.65
2019-02-21T14:03:51.810Z,60.58
2019-02-21T14:06:46.937Z,61.48
2019-02-21T14:09:42.342Z,62.30
2019-02-21T14:12:38.151Z,65.60
2019-02-21T14:15:46.481Z,67.97
2019-02-21T14:18:42.708Z,69.82
2019-02-21T14:21:50.179Z,72.85
2019-02-21T14:24:46.601Z,69.25
2019-02-21T14:27:42.748Z,72.30
2019-02-21T14:30:38.083Z,72.22
2019-02-21T14:33:33.996Z,66.33
2019-02-21T14:36:32.556Z,69.45
2019-02-21T14:39:27.840Z,67.50
2019-02-21T14:42:23.016Z,71.65
2019-02-21T14:45:19.454Z,72.32
2019-02-21T14:48:14.766Z,71.17
2019-02-21T14:51:10.488Z,71.90
2019-02-21T14:54:05.452Z,72.20
2019-02-21T14:57:01.434Z,72.40
2019-02-21T14:59:56.504Z,71.25
2019-02-21T15:02:52.133Z,71.20
2019-02-21T15:05:47.216Z,62.53
2019-02-21T15:08:42.803Z,62.70
2019-02-21T15:11:37.894Z,59.77
2019-02-21T15:14:33.394Z,57.17
2019-02-21T15:17:29.131Z,59.80
2019-02-21T15:20:35.884Z,59.27
2019-02-21T15:23:21.380Z,60.08
2019-02-21T15:26:17.394Z,66.67
2019-02-21T15:29:13.265Z,67.10
2019-02-21T15:32:11.601Z,78.72
2019-02-21T15:35:06.160Z,76.37
2019-02-21T15:38:02.863Z,76.28
2019-02-21T15:40:58.204Z,76.00
2019-02-21T15:43:53.235Z,75.42
2019-02-21T15:46:48.443Z,72.87
2019-02-21T15:49:43.702Z,73.05
2019-02-21T15:52:39.045Z,76.40
2019-02-21T15:55:34.957Z,90.83
2019-02-21T15:58:29.671Z,114.42
2019-02-21T16:01:25.400Z,105.67
2019-02-21T16:04:23.250Z,78.78
2019-02-21T16:07:20.926Z,94.20
2019-02-21T16:10:18.286Z,94.83
2019-02-21T16:13:13.709Z,95.47
2019-02-21T16:16:08.663Z,84.22
2019-02-21T16:19:03.974Z,80.00
2019-02-21T16:21:59.905Z,77.12
2019-02-21T16:24:57.988Z,89.95
2019-02-21T16:27:50.107Z,88.42
2019-02-21T16:30:45.560Z,86.53
2019-02-21T16:33:41.490Z,84.45
2019-02-21T16:36:37.005Z,91.85
2019-02-21T16:39:33.114Z,90.15
2019-02-21T16:42:32.318Z,92.62
2019-02-21T16:45:42.382Z,89.58
2019-02-21T16:48:26.076Z,91.12
2019-02-21T16:51:22.248Z,87.97
2019-02-21T16:54:16.611Z,93.03
2019-02-21T16:57:14.135Z,86.80
2019-02-21T17:00:09.896Z,86.63
2019-02-21T17:03:08.992Z,92.53
2019-02-21T17:06:10.568Z,91.02
2019-02-21T17:09:07.830Z,87.78
2019-02-21T17:12:03.525Z,83.75
2019-02-21T17:14:59.248Z,87.17
2019-02-21T17:18:03.881Z,92.17
2019-02-21T17:20:57.943Z,88.75
2019-02-21T17:23:59.656Z,84.70
2019-02-21T17:26:51.763Z,83.85
2019-02-21T17:29:46.836Z,85.72
2019-02-21T17:32:41.829Z,85.12
2019-02-21T17:35:36.959Z,91.57
2019-02-21T17:38:32.014Z,96.92
2019-02-21T17:41:26.958Z,95.62
2019-02-21T17:44:21.721Z,95.65
2019-02-21T17:47:17.136Z,91.10
2019-02-21T17:50:12.761Z,93.97
2019-02-21T17:53:07.668Z,91.85
2019-02-21T17:56:02.443Z,90.57
2019-02-21T17:58:58.437Z,88.90
2019-02-21T18:01:53.501Z,89.55
2019-02-21T18:04:48.445Z,80.20
2019-02-21T18:07:43.445Z,78.65
2019-02-21T18:10:38.425Z,78.97
2019-02-21T18:13:33.673Z,78.75
2019-02-21T18:16:28.632Z,77.97
2019-02-21T18:19:23.720Z,76.90
2019-02-21T18:22:18.544Z,75.52
2019-02-21T18:25:16.685Z,77.12
2019-02-21T18:28:11.889Z,77.47
2019-02-21T18:31:07.045Z,78.33
2019-02-21T18:34:01.873Z,77.37
2019-02-21T18:36:56.467Z,76.07
2019-02-21T18:39:51.100Z,73.65
2019-02-21T18:42:45.936Z,69.27
2019-02-21T18:45:40.571Z,66.65
2019-02-21T18:48:36.588Z,61.05
2019-02-21T18:51:32.598Z,62.60
2019-02-21T18:54:27.547Z,66.92
2019-02-21T18:57:22.590Z,63.20
2019-02-21T19:00:20.059Z,60.95
2019-02-21T19:03:15.283Z,61.48
2019-02-21T19:06:10.012Z,62.53
2019-02-21T19:09:06.250Z,61.70
2019-02-21T19:12:01.162Z,60.92
2019-02-21T19:14:56.217Z,62.33
2019-02-21T19:17:51.373Z,59.50
2019-02-21T19:20:46.426Z,63.23
2019-02-21T19:23:41.581Z,61.45
2019-02-21T19:26:36.586Z,63.10
2019-02-21T19:29:31.440Z,61.18
2019-02-21T19:32:26.468Z,63.55
2019-02-21T19:35:22.145Z,65.37
2019-02-21T19:38:16.736Z,77.45
2019-02-21T19:41:12.139Z,72.90
2019-02-21T19:44:09.166Z,73.50
2019-02-21T19:47:03.397Z,67.03
2019-02-21T19:49:58.469Z,67.45
2019-02-21T19:52:53.892Z,64.15
2019-02-21T19:55:48.799Z,66.30
2019-02-21T19:58:43.765Z,64.82
2019-02-21T20:01:39.192Z,64.67
2019-02-21T20:04:34.077Z,62.35
2019-02-21T20:07:29.381Z,62.17
2019-02-21T20:10:25.052Z,58.33
2019-02-21T20:13:19.988Z,58.38
2019-02-21T20:16:15.012Z,58.70
2019-02-21T20:19:09.665Z,54.63
2019-02-21T20:22:04.451Z,56.83
2019-02-21T20:24:59.751Z,55.33
2019-02-21T20:27:55.605Z,54.60
2019-02-21T20:30:51.226Z,55.00
2019-02-21T20:33:47.729Z,54.55
2019-02-21T20:36:50.747Z,55.17
2019-02-21T20:39:38.181Z,57.70
2019-02-21T20:42:33.202Z,53.73
2019-02-21T20:45:28.235Z,51.25
2019-02-21T20:48:23.059Z,56.83
2019-02-21T20:51:17.710Z,49.75
2019-02-21T20:54:13.004Z,49.95
2019-02-21T20:57:08.295Z,49.65
2019-02-21T21:00:04.414Z,49.58
2019-02-21T21:02:59.617Z,50.95
2019-02-21T21:05:54.994Z,49.67
2019-02-21T21:08:50.255Z,50.17
2019-02-21T21:11:45.015Z,51.15
2019-02-21T21:14:40.257Z,49.42
2019-02-21T21:17:35.123Z,49.23
2019-02-21T21:20:30.903Z,51.13
2019-02-21T21:23:25.787Z,50.05
2019-02-21T21:26:20.643Z,49.03
2019-02-21T21:29:15.925Z,50.08
2019-02-21T21:32:11.639Z,49.25
2019-02-21T21:35:06.658Z,49.53
2019-02-21T21:38:01.430Z,50.73
2019-02-21T21:40:56.257Z,51.70
2019-02-21T21:43:52.037Z,49.55
2019-02-21T21:46:47.169Z,49.35
2019-02-21T21:49:42.923Z,48.68
2019-02-21T21:52:37.776Z,47.85
2019-02-21T21:55:33.646Z,48.33
2019-02-21T21:58:28.932Z,48.15
2019-02-21T22:01:24.672Z,49.90
2019-02-21T22:04:21.131Z,46.80
2019-02-21T22:07:16.401Z,47.08
2019-02-21T22:10:14.021Z,46.65
2019-02-21T22:13:09.018Z,47.27
2019-02-21T22:16:04.386Z,48.48
2019-02-21T22:18:59.190Z,50.10
2019-02-21T22:21:53.947Z,49.38
2019-02-21T22:24:49.270Z,50.50
2019-02-21T22:27:44.810Z,47.20
2019-02-21T22:30:40.033Z,46.55
2019-02-21T22:33:36.399Z,47.23
2019-02-21T22:36:31.519Z,50.80
2019-02-21T22:39:26.502Z,49.05
2019-02-21T22:42:21.926Z,51.50
2019-02-21T22:45:17.174Z,51.25
2019-02-21T22:48:12.037Z,52.48
2019-02-21T22:51:07.918Z,53.10
2019-02-21T22:54:02.748Z,54.42
2019-02-21T22:56:57.664Z,55.55
2019-02-21T22:59:52.869Z,53.83
2019-02-21T23:02:47.809Z,55.17
2019-02-21T23:06:21.287Z,56.23
2019-02-21T23:09:26.870Z,55.17
2019-02-21T23:12:17.165Z,57.20
2019-02-21T23:15:13.620Z,58.73
2019-02-21T23:18:09.243Z,60.60
2019-02-21T23:21:04.779Z,61.68
2019-02-21T23:24:00.237Z,62.20
2019-02-21T23:26:55.545Z,62.13
2019-02-21T23:29:51.305Z,63.45
2019-02-21T23:32:46.283Z,75.08
2019-02-21T23:35:42.005Z,90.32
2019-02-21T23:38:37.611Z,134.82
2019-02-21T23:41:32.430Z,148.40
2019-02-21T23:44:27.513Z,134.55
2019-02-21T23:47:22.550Z,121.45
2019-02-21T23:50:17.328Z,119.82
2019-02-21T23:53:12.746Z,116.42
2019-02-21T23:56:08.513Z,103.83
2019-02-21T23:59:03.447Z,99.85
